createdAt,value
2019-06-15T00:00:01.351Z,100083.01
2019-06-15T00:02:29.203Z,100079.94
2019-06-15T00:04:56.901Z,100083.64
2019-06-15T00:07:24.560Z,100078.33
2019-06-15T00:09:52.224Z,100068.48
2019-06-15T00:12:19.900Z,100056.44
2019-06-15T00:14:47.610Z,100057.50
2019-06-15T00:17:15.290Z,100049.90
2019-06-15T00:19:42.947Z,100041.47
2019-06-15T00:22:10.605Z,100036.73
2019-06-15T00:24:38.278Z,100032.45
2019-06-15T00:27:05.963Z,100017.13
2019-06-15T00:29:33.652Z,100019.56
2019-06-15T00:32:01.379Z,100016.83
2019-06-15T00:34:29.043Z,100000.02
2019-06-15T00:36:56.853Z,99999.13
2019-06-15T00:39:24.497Z,99986.23
2019-06-15T00:41:52.155Z,99987.23
2019-06-15T00:44:19.832Z,99987.67
2019-06-15T00:46:47.555Z,99989.03
2019-06-15T00:49:15.210Z,99993.80
2019-06-15T00:51:42.869Z,100002.36
2019-06-15T00:54:10.537Z,100004.11
2019-06-15T00:56:38.230Z,100018.48
2019-06-15T00:59:05.960Z,100017.22
2019-06-15T01:01:35.515Z,100004.34
2019-06-15T01:04:03.513Z,99995.13
2019-06-15T01:06:31.147Z,99982.28
2019-06-15T01:08:58.805Z,99974.12
2019-06-15T01:11:26.465Z,99962.37
2019-06-15T01:13:54.132Z,99941.77
2019-06-15T01:16:21.792Z,99937.97
2019-06-15T01:18:49.454Z,99934.02
2019-06-15T01:21:17.114Z,99941.30
2019-06-15T01:23:44.764Z,99944.74
2019-06-15T01:26:12.423Z,99943.98
2019-06-15T01:28:40.088Z,99944.74
2019-06-15T01:31:07.753Z,99946.86
2019-06-15T01:33:35.434Z,99946.42
2019-06-15T01:36:03.148Z,99940.55
2019-06-15T01:38:30.808Z,99928.44
2019-06-15T01:40:58.488Z,99920.57
2019-06-15T01:43:26.147Z,99913.09
2019-06-15T01:45:53.826Z,99901.70
2019-06-15T01:48:21.484Z,99893.95
2019-06-15T01:50:49.140Z,99880.02
2019-06-15T01:53:16.881Z,99878.44
2019-06-15T01:55:44.531Z,99874.27
2019-06-15T01:58:12.184Z,99863.82
2019-06-15T02:00:39.838Z,99860.14
2019-06-15T02:03:07.500Z,99856.05
2019-06-15T02:05:35.160Z,99859.54
2019-06-15T02:08:02.812Z,99855.85
2019-06-15T02:10:30.475Z,99848.19
2019-06-15T02:12:58.222Z,99834.63
2019-06-15T02:15:25.973Z,99837.33
2019-06-15T02:17:53.636Z,99841.95
2019-06-15T02:20:21.311Z,99832.02
2019-06-15T02:22:48.956Z,99838.81
2019-06-15T02:25:16.627Z,99838.58
2019-06-15T02:27:44.280Z,99830.73
2019-06-15T02:30:11.944Z,99827.70
2019-06-15T02:32:39.610Z,99829.86
2019-06-15T02:35:07.268Z,99822.31
2019-06-15T02:37:35.071Z,99827.44
2019-06-15T02:40:02.742Z,99831.23
2019-06-15T02:42:30.414Z,99825.47
2019-06-15T02:44:58.134Z,99823.38
2019-06-15T02:47:25.792Z,99823.45
2019-06-15T02:49:53.452Z,99820.88
2019-06-15T02:52:21.123Z,99826.30
2019-06-15T02:54:48.796Z,99828.38
2019-06-15T02:57:16.455Z,99825.47
2019-06-15T02:59:44.123Z,99826.64
2019-06-15T03:02:11.787Z,99815.92
2019-06-15T03:04:39.444Z,99816.88
2019-06-15T03:07:07.145Z,99804.10
2019-06-15T03:09:35.380Z,99804.10
2019-06-15T03:12:03.033Z,99808.95
2019-06-15T03:14:30.702Z,99804.91
2019-06-15T03:16:58.392Z,99806.03
2019-06-15T03:19:26.253Z,99814.88
2019-06-15T03:21:53.971Z,99832.90
2019-06-15T03:24:21.671Z,99844.48
2019-06-15T03:26:49.344Z,99855.52
2019-06-15T03:29:17.004Z,99843.64
2019-06-15T03:31:44.665Z,99843.64
2019-06-15T03:34:12.397Z,99835.91
2019-06-15T03:36:40.055Z,99832.59
2019-06-15T03:39:08.102Z,99820.19
2019-06-15T03:41:35.760Z,99817.27
2019-06-15T03:44:03.425Z,99814.20
2019-06-15T03:46:31.139Z,99811.91
2019-06-15T03:48:58.801Z,99803.61
2019-06-15T03:51:26.451Z,99805.61
2019-06-15T03:53:54.143Z,99808.84
2019-06-15T03:56:22.393Z,99806.22
2019-06-15T03:58:50.212Z,99795.22
2019-06-15T04:01:17.947Z,99786.72
2019-06-15T04:03:45.613Z,99782.80
2019-06-15T04:06:13.270Z,99782.89
2019-06-15T04:08:40.935Z,99783.33
2019-06-15T04:11:08.593Z,99781.02
2019-06-15T04:13:36.257Z,99780.90
2019-06-15T04:16:03.908Z,99776.94
2019-06-15T04:18:31.570Z,99767.11
2019-06-15T04:20:59.232Z,99763.26
2019-06-15T04:23:26.899Z,99761.27
2019-06-15T04:25:54.547Z,99769.81
2019-06-15T04:28:22.206Z,99759.41
2019-06-15T04:30:49.867Z,99753.89
2019-06-15T04:33:17.544Z,99747.54
2019-06-15T04:35:45.200Z,99746.47
2019-06-15T04:38:12.863Z,99748.08
2019-06-15T04:40:40.525Z,99747.94
2019-06-15T04:43:08.180Z,99753.45
2019-06-15T04:45:35.839Z,99751.48
2019-06-15T04:48:03.493Z,99734.98
2019-06-15T04:50:31.258Z,99741.06
2019-06-15T04:52:58.928Z,99735.41
2019-06-15T04:55:26.579Z,99725.73
2019-06-15T04:57:54.265Z,99730.88
2019-06-15T05:00:21.997Z,99740.00
2019-06-15T05:02:49.733Z,99736.84
2019-06-15T05:05:17.395Z,99747.55
2019-06-15T05:07:45.135Z,99742.37
2019-06-15T05:10:12.809Z,99752.47
2019-06-15T05:12:40.466Z,99750.66
2019-06-15T05:15:08.126Z,99752.21
2019-06-15T05:17:35.770Z,99751.66
2019-06-15T05:20:03.452Z,99747.16
2019-06-15T05:22:31.098Z,99743.43
2019-06-15T05:24:58.759Z,99740.94
2019-06-15T05:27:26.683Z,99739.60
2019-06-15T05:29:56.585Z,99736.09
2019-06-15T05:32:23.739Z,99735.70
2019-06-15T05:34:51.585Z,99737.56
2019-06-15T05:37:19.455Z,99741.55
2019-06-15T05:39:47.197Z,99741.48
2019-06-15T05:42:14.861Z,99746.53
2019-06-15T05:44:42.525Z,99736.34
2019-06-15T05:47:10.220Z,99743.80
2019-06-15T05:49:37.973Z,99747.05
2019-06-15T05:52:05.653Z,99747.28
2019-06-15T05:54:33.313Z,99745.53
2019-06-15T05:57:00.979Z,99755.88
2019-06-15T05:59:28.631Z,99759.93
2019-06-15T06:01:56.296Z,99762.91
2019-06-15T06:04:23.964Z,99764.97
2019-06-15T06:06:51.616Z,99757.91
2019-06-15T06:09:19.270Z,99754.50
2019-06-15T06:11:46.942Z,99760.52
2019-06-15T06:14:14.603Z,99768.88
2019-06-15T06:16:42.320Z,99768.27
2019-06-15T06:19:10.090Z,99764.50
2019-06-15T06:21:37.750Z,99761.67
2019-06-15T06:24:05.407Z,99765.09
2019-06-15T06:26:33.073Z,99761.83
2019-06-15T06:29:00.722Z,99769.98
2019-06-15T06:31:28.403Z,99762.34
2019-06-15T06:33:56.408Z,99761.55
2019-06-15T06:36:24.068Z,99766.55
2019-06-15T06:38:51.724Z,99762.08
2019-06-15T06:41:19.385Z,99769.84
2019-06-15T06:43:47.044Z,99779.55
2019-06-15T06:46:14.699Z,99776.23
2019-06-15T06:48:42.356Z,99786.25
2019-06-15T06:51:10.369Z,99780.78
2019-06-15T06:53:38.056Z,99784.07
2019-06-15T06:56:05.744Z,99772.94
2019-06-15T06:58:33.389Z,99764.81
2019-06-15T07:01:01.099Z,99774.68
2019-06-15T07:03:28.762Z,99771.56
2019-06-15T07:05:56.419Z,99768.27
2019-06-15T07:08:24.103Z,99765.42
2019-06-15T07:10:51.758Z,99758.36
2019-06-15T07:13:19.412Z,99758.08
2019-06-15T07:15:47.089Z,99772.09
2019-06-15T07:18:14.739Z,99766.08
2019-06-15T07:20:43.631Z,99768.06
2019-06-15T07:23:11.384Z,99762.84
2019-06-15T07:25:39.061Z,99762.88
2019-06-15T07:28:08.282Z,99757.56
2019-06-15T07:30:36.096Z,99758.72
2019-06-15T07:33:04.067Z,99763.66
2019-06-15T07:35:31.785Z,99764.25
2019-06-15T07:37:59.463Z,99762.87
2019-06-15T07:40:27.121Z,99762.04
2019-06-15T07:42:54.870Z,99766.42
2019-06-15T07:45:22.570Z,99761.22
2019-06-15T07:47:50.236Z,99766.44
2019-06-15T07:50:17.892Z,99776.64
2019-06-15T07:52:45.708Z,99782.10
2019-06-15T07:55:13.570Z,99785.31
2019-06-15T07:57:41.274Z,99791.30
2019-06-15T08:00:08.938Z,99794.27
2019-06-15T08:02:36.601Z,99794.70
2019-06-15T08:05:04.332Z,99799.06
2019-06-15T08:07:32.002Z,99803.77
2019-06-15T08:09:59.651Z,99802.18
2019-06-15T08:12:27.347Z,99803.09
2019-06-15T08:14:55.016Z,99800.33
2019-06-15T08:17:22.679Z,99796.72
2019-06-15T08:19:50.344Z,99793.71
2019-06-15T08:22:18.024Z,99793.19
2019-06-15T08:24:45.681Z,99784.35
2019-06-15T08:27:13.399Z,99786.02
2019-06-15T08:29:41.139Z,99787.09
2019-06-15T08:32:08.905Z,99787.68
2019-06-15T08:34:36.564Z,99786.47
2019-06-15T08:37:04.229Z,99796.67
2019-06-15T08:39:31.900Z,99799.68
2019-06-15T08:41:59.551Z,99812.00
2019-06-15T08:44:27.209Z,99812.86
2019-06-15T08:46:54.904Z,99814.12
2019-06-15T08:49:22.609Z,99819.92
2019-06-15T08:51:50.364Z,99808.63
2019-06-15T08:54:18.078Z,99818.69
2019-06-15T08:56:45.801Z,99816.61
2019-06-15T08:59:13.463Z,99823.30
2019-06-15T09:01:41.135Z,99828.26
2019-06-15T09:04:08.812Z,99827.49
2019-06-15T09:06:36.464Z,99827.59
2019-06-15T09:09:04.180Z,99821.95
2019-06-15T09:11:31.905Z,99823.49
2019-06-15T09:13:59.673Z,99815.37
2019-06-15T09:16:27.325Z,99811.80
2019-06-15T09:18:57.471Z,99812.80
2019-06-15T09:21:24.382Z,99811.89
2019-06-15T09:23:52.049Z,99815.45
2019-06-15T09:26:19.721Z,99817.73
2019-06-15T09:28:47.376Z,99812.83
2019-06-15T09:31:15.136Z,99813.09
2019-06-15T09:33:42.823Z,99817.67
2019-06-15T09:36:10.501Z,99817.33
2019-06-15T09:38:38.179Z,99817.34
2019-06-15T09:41:06.424Z,99815.25
2019-06-15T09:43:34.080Z,99815.12
2019-06-15T09:46:01.747Z,99812.58
2019-06-15T09:48:29.413Z,99811.78
2019-06-15T09:50:57.069Z,99811.43
2019-06-15T09:53:24.731Z,99810.58
2019-06-15T09:55:52.396Z,99808.28
2019-06-15T09:58:20.171Z,99808.19
2019-06-15T10:00:47.861Z,99812.35
2019-06-15T10:03:15.623Z,99815.21
2019-06-15T10:05:43.345Z,99814.73
2019-06-15T10:08:11.023Z,99809.83
2019-06-15T10:10:38.758Z,99811.84
2019-06-15T10:13:06.408Z,99810.52
2019-06-15T10:15:34.060Z,99807.20
2019-06-15T10:18:01.716Z,99803.23
2019-06-15T10:20:29.405Z,99802.65
2019-06-15T10:22:57.061Z,99798.48
2019-06-15T10:25:24.752Z,99805.61
2019-06-15T10:27:52.460Z,99812.72
2019-06-15T10:30:20.115Z,99809.87
2019-06-15T10:32:47.761Z,99808.59
2019-06-15T10:35:15.437Z,99817.53
2019-06-15T10:37:43.090Z,99815.56
2019-06-15T10:40:10.836Z,99820.70
2019-06-15T10:42:38.494Z,99817.89
2019-06-15T10:45:06.214Z,99820.23
2019-06-15T10:47:33.880Z,99813.72
2019-06-15T10:50:01.621Z,99820.23
2019-06-15T10:52:29.403Z,99819.70
2019-06-15T10:54:57.064Z,99822.73
2019-06-15T10:57:24.716Z,99828.63
2019-06-15T10:59:57.311Z,99832.69
2019-06-15T11:02:21.727Z,99834.89
2019-06-15T11:04:49.448Z,99841.20
2019-06-15T11:07:17.205Z,99840.09
2019-06-15T11:09:44.864Z,99835.98
2019-06-15T11:12:12.521Z,99845.97
2019-06-15T11:14:40.169Z,99837.48
2019-06-15T11:17:07.830Z,99849.44
2019-06-15T11:19:35.514Z,99853.54
2019-06-15T11:22:03.239Z,99852.20
2019-06-15T11:24:30.928Z,99855.58
2019-06-15T11:26:58.658Z,99850.23
2019-06-15T11:29:26.302Z,99857.44
2019-06-15T11:31:53.954Z,99852.14
2019-06-15T11:34:21.619Z,99860.95
2019-06-15T11:36:49.356Z,99857.88
2019-06-15T11:39:17.013Z,99857.69
2019-06-15T11:41:44.786Z,99850.78
2019-06-15T11:44:12.460Z,99846.83
2019-06-15T11:46:40.133Z,99855.94
2019-06-15T11:49:07.846Z,99854.37
2019-06-15T11:51:35.572Z,99854.22
2019-06-15T11:54:03.209Z,99857.64
2019-06-15T11:56:30.860Z,99855.98
2019-06-15T11:58:58.525Z,99856.80
2019-06-15T12:01:26.196Z,99855.08
2019-06-15T12:03:53.922Z,99853.95
2019-06-15T12:06:21.585Z,99848.05
2019-06-15T12:08:49.331Z,99842.50
2019-06-15T12:11:16.988Z,99852.98
2019-06-15T12:13:44.646Z,99850.03
2019-06-15T12:16:12.316Z,99855.17
2019-06-15T12:18:39.967Z,99846.97
2019-06-15T12:21:07.627Z,99842.95
2019-06-15T12:23:35.290Z,99835.36
2019-06-15T12:26:02.986Z,99849.02
2019-06-15T12:28:30.692Z,99850.70
2019-06-15T12:30:58.349Z,99852.64
2019-06-15T12:33:25.994Z,99851.31
2019-06-15T12:35:53.680Z,99864.27
2019-06-15T12:38:21.344Z,99873.36
2019-06-15T12:40:49.067Z,99854.11
2019-06-15T12:43:16.731Z,99855.64
2019-06-15T12:45:44.389Z,99844.69
2019-06-15T12:48:12.063Z,99855.91
2019-06-15T12:50:39.726Z,99863.72
2019-06-15T12:53:07.376Z,99875.45
2019-06-15T12:55:35.035Z,99876.55
2019-06-15T12:58:02.698Z,99890.39
2019-06-15T13:00:30.351Z,99882.38
2019-06-15T13:02:58.000Z,99880.81
2019-06-15T13:05:25.655Z,99855.73
2019-06-15T13:07:53.312Z,99869.39
2019-06-15T13:10:20.975Z,99879.37
2019-06-15T13:12:48.708Z,99877.71
2019-06-15T13:15:16.444Z,99889.38
2019-06-15T13:17:44.106Z,99899.43
2019-06-15T13:20:11.773Z,99916.02
2019-06-15T13:22:39.499Z,99907.67
2019-06-15T13:25:07.153Z,99914.37
2019-06-15T13:27:34.803Z,99916.16
2019-06-15T13:30:02.509Z,99909.30
2019-06-15T13:32:30.206Z,99903.05
2019-06-15T13:34:57.874Z,99911.91
2019-06-15T13:37:25.551Z,99915.34
2019-06-15T13:39:53.203Z,99919.50
2019-06-15T13:42:20.865Z,99911.77
2019-06-15T13:44:48.620Z,99907.16
2019-06-15T13:47:16.284Z,99908.69
2019-06-15T13:49:43.946Z,99907.08
2019-06-15T13:52:11.595Z,99914.30
2019-06-15T13:54:39.262Z,99917.52
2019-06-15T13:57:06.921Z,99912.45
2019-06-15T13:59:34.570Z,99922.73
2019-06-15T14:02:02.239Z,99923.65
2019-06-15T14:04:29.893Z,99930.48
2019-06-15T14:06:57.623Z,99926.96
2019-06-15T14:09:25.286Z,99922.42
2019-06-15T14:11:52.934Z,99924.36
2019-06-15T14:14:20.613Z,99920.37
2019-06-15T14:16:48.287Z,99922.38
2019-06-15T14:19:16.044Z,99927.97
2019-06-15T14:21:43.735Z,99928.04
2019-06-15T14:24:11.390Z,99937.64
2019-06-15T14:26:39.044Z,99928.57
2019-06-15T14:29:06.694Z,99940.02
2019-06-15T14:31:46.658Z,99933.49
2019-06-15T14:34:03.707Z,99945.84
2019-06-15T14:36:31.351Z,99939.20
2019-06-15T14:38:59.003Z,99952.48
2019-06-15T14:41:26.727Z,99950.67
2019-06-15T14:43:54.460Z,99954.09
2019-06-15T14:46:22.111Z,99950.44
2019-06-15T14:48:49.762Z,99946.16
2019-06-15T14:51:17.403Z,99950.03
2019-06-15T14:53:49.872Z,99953.13
2019-06-15T14:56:16.038Z,99947.63
2019-06-15T14:58:45.783Z,99939.98
2019-06-15T15:01:13.215Z,99939.20
2019-06-15T15:03:40.876Z,99934.14
2019-06-15T15:06:08.520Z,99940.49
2019-06-15T15:08:36.785Z,99923.26
2019-06-15T15:11:06.580Z,99921.98
2019-06-15T15:13:36.404Z,99937.25
2019-06-15T15:16:03.411Z,99940.36
2019-06-15T15:18:31.081Z,99936.98
2019-06-15T15:20:58.725Z,99949.20
2019-06-15T15:23:26.389Z,99953.36
2019-06-15T15:25:54.043Z,99958.32
2019-06-15T15:28:21.766Z,99954.17
2019-06-15T15:30:49.561Z,99962.18
2019-06-15T15:33:17.214Z,99951.34
2019-06-15T15:35:46.625Z,99968.22
2019-06-15T15:38:14.243Z,99967.97
2019-06-15T15:40:41.917Z,99972.94
2019-06-15T15:43:09.563Z,99969.34
2019-06-15T15:45:37.328Z,99976.00
2019-06-15T15:48:06.832Z,99981.42
2019-06-15T15:50:36.811Z,99985.05
2019-06-15T15:53:03.764Z,99990.08
2019-06-15T15:55:31.440Z,99983.56
2019-06-15T15:57:59.091Z,99979.96
2019-06-15T16:00:27.066Z,99990.45
2019-06-15T16:02:56.627Z,99986.05
2019-06-15T16:05:26.445Z,99981.08
2019-06-15T16:07:53.480Z,99989.16
2019-06-15T16:10:21.141Z,99986.20
2019-06-15T16:12:48.809Z,99989.06
2019-06-15T16:15:16.464Z,99995.16
2019-06-15T16:17:46.342Z,100001.88
2019-06-15T16:20:13.481Z,100001.98
2019-06-15T16:22:41.135Z,100003.66
2019-06-15T16:25:08.786Z,100017.16
2019-06-15T16:27:37.025Z,100017.34
2019-06-15T16:30:06.473Z,100022.00
2019-06-15T16:32:36.997Z,100027.69
2019-06-15T16:35:03.766Z,100033.27
2019-06-15T16:37:31.411Z,100028.05
2019-06-15T16:39:59.148Z,100031.62
2019-06-15T16:42:26.892Z,100033.30
2019-06-15T16:44:56.137Z,100036.38
2019-06-15T16:47:23.987Z,100041.38
2019-06-15T16:49:51.639Z,100042.80
2019-06-15T16:52:19.304Z,100049.84
2019-06-15T16:54:47.110Z,100055.34
2019-06-15T16:57:16.097Z,100063.80
2019-06-15T16:59:43.945Z,100062.51
2019-06-15T17:02:11.635Z,100063.84
2019-06-15T17:04:39.303Z,100059.38
2019-06-15T17:07:07.270Z,100065.61
2019-06-15T17:09:36.254Z,100076.11
2019-06-15T17:12:06.426Z,100080.19
2019-06-15T17:14:36.268Z,100088.43
2019-06-15T17:17:05.367Z,100086.62
2019-06-15T17:19:32.207Z,100092.61
2019-06-15T17:22:13.793Z,100093.55
2019-06-15T17:24:29.232Z,100086.27
2019-06-15T17:26:57.119Z,100093.13
2019-06-15T17:29:24.929Z,100093.09
2019-06-15T17:31:52.592Z,100086.57
2019-06-15T17:34:20.244Z,100083.52
2019-06-15T17:36:47.905Z,100078.80
2019-06-15T17:39:17.117Z,100077.30
2019-06-15T17:41:47.180Z,100070.44
2019-06-15T17:44:16.668Z,100068.85
2019-06-15T17:46:46.202Z,100062.38
2019-06-15T17:49:13.370Z,100067.37
2019-06-15T17:51:41.047Z,100073.34
2019-06-15T17:54:08.766Z,100073.85
2019-06-15T17:56:36.723Z,100073.56
2019-06-15T17:59:06.480Z,100072.38
2019-06-15T18:01:36.284Z,100071.08
2019-06-15T18:04:03.321Z,100066.70
2019-06-15T18:06:30.979Z,100054.77
2019-06-15T18:08:58.639Z,100053.80
2019-06-15T18:11:26.430Z,100045.67
2019-06-15T18:13:56.469Z,100043.50
2019-06-15T18:16:26.422Z,100044.80
2019-06-15T18:18:52.958Z,100054.19
2019-06-15T18:21:20.608Z,100060.75
2019-06-15T18:23:48.274Z,100072.06
2019-06-15T18:26:16.294Z,100081.55
2019-06-15T18:28:44.064Z,100089.03
2019-06-15T18:31:11.718Z,100086.67
2019-06-15T18:33:39.373Z,100092.01
2019-06-15T18:36:07.025Z,100095.39
2019-06-15T18:38:36.993Z,100090.09
2019-06-15T18:41:04.051Z,100106.07
2019-06-15T18:43:31.715Z,100104.34
2019-06-15T18:45:59.365Z,100110.58
2019-06-15T18:48:27.038Z,100110.30
2019-06-15T18:50:56.009Z,100116.41
2019-06-15T18:53:24.000Z,100115.36
2019-06-15T18:55:51.649Z,100118.71
2019-06-15T18:58:19.311Z,100117.34
2019-06-15T19:00:46.973Z,100126.16
2019-06-15T19:03:16.765Z,100134.99
2019-06-15T19:05:44.059Z,100134.69
2019-06-15T19:08:11.728Z,100130.38
2019-06-15T19:10:39.395Z,100122.67
2019-06-15T19:13:07.618Z,100131.19
2019-06-15T19:15:37.253Z,100137.70
2019-06-15T19:18:07.549Z,100143.55
2019-06-15T19:20:36.862Z,100148.23
2019-06-15T19:23:06.561Z,100151.58
2019-06-15T19:25:33.011Z,100158.89
2019-06-15T19:28:00.657Z,100164.56
2019-06-15T19:30:28.320Z,100175.34
2019-06-15T19:32:56.609Z,100178.54
2019-06-15T19:35:26.337Z,100187.94
2019-06-15T19:37:56.288Z,100194.17
2019-06-15T19:40:23.234Z,100201.91
2019-06-15T19:42:50.886Z,100206.01
2019-06-15T19:45:18.539Z,100206.95
2019-06-15T19:47:46.961Z,100208.27
2019-06-15T19:50:16.611Z,100217.86
2019-06-15T19:52:46.147Z,100219.04
2019-06-15T19:55:13.553Z,100229.21
2019-06-15T19:57:41.217Z,100224.88
2019-06-15T20:00:08.871Z,100238.62
2019-06-15T20:02:36.581Z,100227.37
2019-06-15T20:05:04.360Z,100221.77
2019-06-15T20:07:32.017Z,100217.75
2019-06-15T20:09:59.753Z,100208.36
2019-06-15T20:12:27.519Z,100196.84
2019-06-15T20:14:56.723Z,100191.38
2019-06-15T20:17:24.525Z,100197.27
2019-06-15T20:19:52.184Z,100194.11
2019-06-15T20:22:19.840Z,100190.80
2019-06-15T20:24:47.604Z,100194.89
2019-06-15T20:27:16.471Z,100196.66
2019-06-15T20:29:44.286Z,100200.43
2019-06-15T20:32:11.938Z,100206.41
2019-06-15T20:34:39.586Z,100208.34
2019-06-15T20:37:07.268Z,100212.55
2019-06-15T20:39:36.347Z,100212.12
2019-06-15T20:42:04.326Z,100219.36
2019-06-15T20:44:31.954Z,100223.44
2019-06-15T20:46:59.636Z,100225.64
2019-06-15T20:49:27.360Z,100228.00
2019-06-15T20:51:56.156Z,100228.90
2019-06-15T20:54:23.954Z,100243.33
2019-06-15T20:56:51.640Z,100234.20
2019-06-15T20:59:19.292Z,100250.27
2019-06-15T21:01:46.960Z,100252.31
2019-06-15T21:04:16.159Z,100271.28
2019-06-15T21:06:44.001Z,100279.97
2019-06-15T21:09:11.711Z,100289.52
2019-06-15T21:11:39.436Z,100291.27
2019-06-15T21:14:07.090Z,100300.93
2019-06-15T21:16:36.941Z,100307.52
2019-06-15T21:19:06.345Z,100312.84
2019-06-15T21:21:33.531Z,100314.30
2019-06-15T21:24:01.278Z,100329.95
2019-06-15T21:26:28.934Z,100337.40
2019-06-15T21:28:56.677Z,100348.42
2019-06-15T21:31:26.217Z,100350.03
2019-06-15T21:33:56.010Z,100348.39
2019-06-15T21:36:23.144Z,100348.89
2019-06-15T21:38:50.797Z,100347.66
2019-06-15T21:41:18.446Z,100355.67
2019-06-15T21:43:47.200Z,100359.66
2019-06-15T21:46:16.821Z,100364.24
2019-06-15T21:48:46.758Z,100372.80
2019-06-15T21:51:16.434Z,100373.25
2019-06-15T21:53:43.117Z,100376.43
2019-06-15T21:56:10.847Z,100376.56
2019-06-15T21:58:38.514Z,100374.89
2019-06-15T22:01:06.369Z,100375.69
2019-06-15T22:03:36.642Z,100382.84
2019-06-15T22:06:06.260Z,100382.74
2019-06-15T22:08:32.881Z,100381.34
2019-06-15T22:11:00.527Z,100375.91
2019-06-15T22:13:28.195Z,100375.14
2019-06-15T22:15:56.175Z,100390.31
2019-06-15T22:18:23.983Z,100404.80
2019-06-15T22:20:51.640Z,100404.33
2019-06-15T22:23:19.300Z,100408.83
2019-06-15T22:25:46.953Z,100412.33
2019-06-15T22:28:16.471Z,100404.53
2019-06-15T22:30:46.002Z,100411.55
2019-06-15T22:33:13.317Z,100419.84
2019-06-15T22:35:40.972Z,100429.57
2019-06-15T22:38:08.618Z,100427.80
2019-06-15T22:40:36.452Z,100434.38
2019-06-15T22:43:04.293Z,100439.97
2019-06-15T22:45:31.952Z,100444.15
2019-06-15T22:47:59.613Z,100454.52
2019-06-15T22:50:27.291Z,100451.55
2019-06-15T22:52:56.476Z,100453.80
2019-06-15T22:55:26.101Z,100460.40
2019-06-15T22:57:53.613Z,100466.31
2019-06-15T23:00:21.372Z,100463.70
2019-06-15T23:02:49.015Z,100467.21
2019-06-15T23:05:17.200Z,100460.80
2019-06-15T23:07:47.289Z,100468.20
2019-06-15T23:10:16.536Z,100470.20
2019-06-15T23:12:46.237Z,100466.81
2019-06-15T23:15:13.107Z,100461.70
2019-06-15T23:17:40.795Z,100464.97
2019-06-15T23:20:08.491Z,100468.17
2019-06-15T23:22:36.144Z,100468.38
2019-06-15T23:25:05.920Z,100475.09
2019-06-15T23:27:33.164Z,100477.16
2019-06-15T23:30:00.827Z,100483.31
2019-06-15T23:32:28.479Z,100490.29
2019-06-15T23:34:56.506Z,100485.98
2019-06-15T23:37:26.508Z,100483.92
2019-06-15T23:39:59.072Z,100492.17
2019-06-15T23:42:27.278Z,100487.66
2019-06-15T23:44:56.117Z,100490.59
2019-06-15T23:47:26.226Z,100495.30
2019-06-15T23:49:53.284Z,100496.39
2019-06-15T23:52:20.944Z,100491.44
2019-06-15T23:54:48.583Z,100490.20
2019-06-15T23:57:16.247Z,100483.34
2019-06-15T23:59:46.442Z,100488.69
